Time;durP1;ratioP1;P1;durP2;ratioP2;P2;SDS_P1;SDS_P2;PMS_P1;PMS_P2;Temp;Humidity;BMP_temperature;BMP_pressure;BME280_temperature;BME280_humidity;BME280_pressure;Samples;Min_cycle;Max_cycle;Signal;HPM_P1;HPM_P2
2024/01/04 00:01:19;;;;;;;6.10;1.83;;;;;;;-22.42;47.39;99516.19;5062381;28;20036;-66
2024/01/04 00:03:45;;;;;;;1.23;0.87;;;;;;;-22.65;47.84;99461.75;5063128;28;20095;-66
2024/01/04 00:06:11;;;;;;;5.80;1.83;;;;;;;-22.71;47.37;99471.78;5064032;28;20044;-65
2024/01/04 00:08:37;;;;;;;2.67;1.47;;;;;;;-22.49;46.73;99497.34;5050080;28;20064;-65
2024/01/04 00:11:06;;;;;;;3.90;2.27;;;;;;;-22.44;46.91;99506.16;5056885;28;20040;-63
2024/01/04 00:13:33;;;;;;;4.03;2.20;;;;;;;-22.44;46.62;99497.88;5049262;28;20040;-67
2024/01/04 00:15:59;;;;;;;5.40;1.80;;;;;;;-22.79;46.51;99461.03;5029075;28;20082;-64
2024/01/04 00:18:25;;;;;;;5.77;2.17;;;;;;;-22.64;47.80;99495.59;5045122;28;20620;-67
2024/01/04 00:20:51;;;;;;;1.97;1.40;;;;;;;-22.52;47.14;99497.00;5042798;28;20040;-66
2024/01/04 00:23:17;;;;;;;5.20;2.07;;;;;;;-22.54;47.55;99471.25;5045890;28;20032;-71
2024/01/04 00:25:43;;;;;;;1.77;0.97;;;;;;;-22.51;47.52;99479.00;5044770;28;20044;-64
2024/01/04 00:28:09;;;;;;;4.27;2.03;;;;;;;-22.49;46.89;99476.72;5049432;28;20043;-64
2024/01/04 00:30:36;;;;;;;2.60;1.90;;;;;;;-22.53;47.92;99460.69;5040649;28;20036;-68
2024/01/04 00:33:02;;;;;;;2.73;1.67;;;;;;;-22.36;47.57;99491.31;5043069;28;20183;-65
2024/01/04 00:35:28;;;;;;;1.63;1.20;;;;;;;-22.50;47.28;99467.56;5031287;28;20048;-63
2024/01/04 00:37:57;;;;;;;3.97;1.40;;;;;;;-22.44;47.23;99481.50;5030565;28;20048;-63
2024/01/04 00:40:23;;;;;;;5.23;1.10;;;;;;;-22.30;47.87;99500.31;5040785;28;20127;-63
2024/01/04 00:42:49;;;;;;;6.07;2.50;;;;;;;-22.24;48.02;99499.22;5042504;28;20506;-64
2024/01/04 00:45:15;;;;;;;2.87;1.60;;;;;;;-22.58;48.05;99432.13;5041556;28;20127;-64
2024/01/04 00:47:41;;;;;;;5.33;2.50;;;;;;;-22.24;47.35;99484.41;5031281;28;20055;-65
2024/01/04 00:50:08;;;;;;;4.30;3.27;;;;;;;-22.29;47.53;99459.22;5048056;28;20040;-65
2024/01/04 00:52:34;;;;;;;6.47;2.37;;;;;;;-22.00;46.63;99496.22;5056728;28;20040;-64
2024/01/04 00:55:00;;;;;;;4.53;2.00;;;;;;;-22.26;47.86;99454.63;5061886;28;20039;-64
2024/01/04 00:57:26;;;;;;;4.30;2.70;;;;;;;-22.22;47.86;99492.88;5060417;28;20036;-65
2024/01/04 00:59:53;;;;;;;10.13;2.53;;;;;;;-22.57;46.48;99442.91;5038597;28;20089;-64
2024/01/04 01:02:19;;;;;;;11.40;2.47;;;;;;;-22.30;47.55;99497.84;5025380;28;20032;-64
2024/01/04 01:04:45;;;;;;;2.80;2.43;;;;;;;-22.35;47.37;99473.31;5042657;28;20041;-64
2024/01/04 01:07:12;;;;;;;5.63;2.70;;;;;;;-22.46;46.97;99477.97;5018731;28;20144;-65
2024/01/04 01:09:38;;;;;;;4.77;3.00;;;;;;;-22.34;47.97;99499.75;5057425;28;20068;-64
2024/01/04 01:12:05;;;;;;;5.67;3.10;;;;;;;-22.64;46.94;99463.53;5045898;28;20068;-64
2024/01/04 01:14:31;;;;;;;5.17;2.57;;;;;;;-22.64;47.07;99496.47;5054236;28;20037;-65
2024/01/04 01:16:57;;;;;;;5.47;2.13;;;;;;;-22.72;47.52;99496.28;5060674;28;20060;-63
2024/01/04 01:19:24;;;;;;;4.40;2.10;;;;;;;-22.84;46.84;99485.88;5061369;28;20066;-65
2024/01/04 01:21:50;;;;;;;5.50;2.23;;;;;;;-22.82;46.76;99499.25;5058384;28;20052;-65
2024/01/04 01:24:16;;;;;;;4.07;2.87;;;;;;;-23.16;47.85;99439.53;5058548;28;20046;-66
2024/01/04 01:26:45;;;;;;;3.60;2.50;;;;;;;-23.15;46.64;99438.81;5054751;28;20551;-68
2024/01/04 01:29:11;;;;;;;5.60;2.53;;;;;;;-23.09;47.66;99427.22;5059284;28;20047;-66
2024/01/04 01:31:41;;;;;;;10.80;3.47;;;;;;;-22.93;46.87;99432.31;5063557;28;20048;-68
2024/01/04 01:34:07;;;;;;;3.47;1.83;;;;;;;-22.64;47.89;99474.25;5071080;28;20071;-64
2024/01/04 01:36:33;;;;;;;7.33;3.07;;;;;;;-22.50;47.94;99465.09;5055748;28;20048;-66
2024/01/04 01:38:59;;;;;;;3.67;1.80;;;;;;;-22.55;47.59;99447.28;5059120;28;20044;-66
2024/01/04 01:41:26;;;;;;;2.40;1.47;;;;;;;-22.55;47.08;99446.44;5056884;28;20515;-66
2024/01/04 01:43:52;;;;;;;3.13;1.73;;;;;;;-22.42;47.11;99443.78;5055827;28;20048;-67
2024/01/04 01:46:18;;;;;;;3.77;2.07;;;;;;;-22.50;47.08;99421.56;5068953;28;20589;-65
2024/01/04 01:48:44;;;;;;;2.43;1.50;;;;;;;-22.24;47.65;99453.22;5046053;28;20137;-66
2024/01/04 01:51:11;;;;;;;4.87;1.47;;;;;;;-22.31;46.21;99454.13;5041315;28;20067;-66
2024/01/04 01:53:37;;;;;;;1.30;1.07;;;;;;;-22.35;47.10;99444.59;5063140;28;20086;-66
2024/01/04 01:56:04;;;;;;;4.87;2.23;;;;;;;-22.37;47.53;99441.06;5023603;28;20110;-66
2024/01/04 01:58:30;;;;;;;2.33;1.30;;;;;;;-22.48;47.09;99415.22;5056859;28;20056;-68
2024/01/04 02:00:57;;;;;;;2.03;1.83;;;;;;;-22.53;47.58;99403.94;5063161;28;20116;-66
2024/01/04 02:03:23;;;;;;;5.83;2.30;;;;;;;-22.42;48.02;99412.56;5057102;28;20560;-65
2024/01/04 02:05:49;;;;;;;5.90;2.73;;;;;;;-22.22;47.65;99449.34;5051533;28;20049;-66
2024/01/04 02:08:15;;;;;;;5.03;2.97;;;;;;;-22.34;46.53;99431.56;5057211;28;20048;-66
2024/01/04 02:10:41;;;;;;;8.63;1.20;;;;;;;-22.35;47.96;99416.56;5030491;28;20036;-66
2024/01/04 02:13:09;;;;;;;8.17;1.73;;;;;;;-22.32;47.30;99429.25;5040944;28;20458;-65
2024/01/04 02:15:35;;;;;;;7.27;2.30;;;;;;;-22.61;47.79;99399.72;5035835;28;20036;-65
2024/01/04 02:18:01;;;;;;;2.97;1.87;;;;;;;-22.25;48.21;99439.13;5030598;28;20127;-64
2024/01/04 02:20:47;;;;;;;1.57;1.23;;;;;;;-22.27;48.34;99428.19;5044189;28;20090;-68
2024/01/04 02:23:17;;;;;;;2.43;1.70;;;;;;;-22.20;46.57;99449.50;5041050;28;20140;-65
2024/01/04 02:25:43;;;;;;;7.50;2.10;;;;;;;-22.21;47.81;99445.28;5057605;28;20050;-67
2024/01/04 02:28:10;;;;;;;9.23;2.57;;;;;;;-22.12;47.60;99461.13;5052110;28;20060;-66
2024/01/04 02:30:36;;;;;;;9.97;2.70;;;;;;;-22.14;47.44;99451.06;5057558;28;20062;-66
2024/01/04 02:33:02;;;;;;;2.33;1.47;;;;;;;-22.28;48.03;99427.28;5052754;28;20052;-65
2024/01/04 02:35:28;;;;;;;3.40;1.80;;;;;;;-22.15;47.15;99432.03;5025078;28;20532;-67
2024/01/04 02:37:55;;;;;;;3.07;1.87;;;;;;;-22.11;47.12;99438.22;5039878;28;20043;-67
2024/01/04 02:40:22;;;;;;;12.93;2.70;;;;;;;-22.28;47.11;99405.06;5041053;28;20105;-66
2024/01/04 02:42:48;;;;;;;2.20;2.07;;;;;;;-22.26;46.48;99422.53;5023166;28;20025;-66
2024/01/04 02:45:15;;;;;;;5.33;2.00;;;;;;;-22.45;46.89;99393.38;5040484;28;20040;-67
2024/01/04 02:47:42;;;;;;;8.37;2.17;;;;;;;-22.30;47.60;99415.50;5038911;28;20066;-66
2024/01/04 02:50:09;;;;;;;2.83;1.67;;;;;;;-22.15;46.84;99441.91;5040700;28;20097;-66
2024/01/04 02:52:35;;;;;;;4.07;2.60;;;;;;;-22.34;47.50;99428.19;5039462;28;20539;-66
2024/01/04 02:55:01;;;;;;;4.93;1.93;;;;;;;-22.41;47.96;99431.56;5055006;28;20257;-67
2024/01/04 02:57:29;;;;;;;6.90;2.63;;;;;;;-22.41;46.96;99433.16;5041153;28;20147;-67
2024/01/04 02:59:56;;;;;;;8.07;2.67;;;;;;;-22.37;47.22;99428.75;5051249;28;20506;-66
2024/01/04 03:02:22;;;;;;;6.93;3.13;;;;;;;-22.80;46.74;99377.88;5047150;28;20047;-67
2024/01/04 03:04:48;;;;;;;4.93;2.60;;;;;;;-22.56;47.61;99432.31;5052140;28;20036;-66
2024/01/04 03:07:13;;;;;;;9.03;3.30;;;;;;;-22.49;47.88;99443.06;5039445;28;20454;-66
2024/01/04 03:09:39;;;;;;;2.97;2.07;;;;;;;-22.48;46.86;99444.81;5052353;28;20410;-67
2024/01/04 03:12:06;;;;;;;2.53;2.33;;;;;;;-22.34;47.66;99443.91;5054921;28;20098;-66
2024/01/04 03:14:32;;;;;;;3.13;2.03;;;;;;;-22.63;47.98;99389.69;5038642;28;20055;-66
2024/01/04 03:16:58;;;;;;;4.30;2.27;;;;;;;-22.37;47.33;99435.25;5047899;28;20127;-66
2024/01/04 03:19:24;;;;;;;7.07;1.83;;;;;;;-22.72;46.66;99380.34;5041988;28;20037;-66
2024/01/04 03:21:50;;;;;;;10.67;2.27;;;;;;;-22.54;46.68;99396.38;5043483;28;20048;-66
2024/01/04 03:24:16;;;;;;;3.93;1.23;;;;;;;-22.59;46.87;99403.22;5025961;28;20078;-66
2024/01/04 03:26:42;;;;;;;4.33;2.83;;;;;;;-22.70;47.47;99406.09;5038581;28;20037;-66
2024/01/04 03:29:08;;;;;;;4.73;2.60;;;;;;;-22.95;46.69;99369.66;5047922;28;20078;-67
2024/01/04 03:31:34;;;;;;;4.30;2.83;;;;;;;-23.52;46.80;99272.84;5060226;28;20040;-65
2024/01/04 03:34:00;;;;;;;3.47;2.13;;;;;;;-22.82;47.86;99374.38;5045907;28;20033;-66
2024/01/04 03:36:26;;;;;;;4.20;2.97;;;;;;;-22.65;48.18;99395.16;5042859;28;20064;-65
2024/01/04 03:38:52;;;;;;;3.23;1.33;;;;;;;-22.65;47.38;99365.56;5058567;28;20570;-66
2024/01/04 03:41:18;;;;;;;1.57;1.37;;;;;;;-22.74;47.26;99340.72;5062552;28;20043;-66
2024/01/04 03:43:43;;;;;;;3.23;1.70;;;;;;;-22.58;47.33;99375.41;5057197;28;20044;-66
2024/01/04 03:46:10;;;;;;;2.60;1.77;;;;;;;-22.49;47.91;99387.88;5043413;28;20057;-65
2024/01/04 03:48:36;;;;;;;1.73;1.50;;;;;;;-22.63;47.75;99377.34;5028376;28;20518;-66
2024/01/04 03:51:02;;;;;;;3.37;1.33;;;;;;;-22.63;46.30;99383.88;5062389;28;20131;-66
2024/01/04 03:53:28;;;;;;;3.00;1.90;;;;;;;-22.61;47.29;99372.56;5030697;28;20048;-65
2024/01/04 03:55:54;;;;;;;3.20;1.63;;;;;;;-22.93;46.95;99342.69;5063828;28;20060;-66
2024/01/04 03:58:20;;;;;;;3.13;1.83;;;;;;;-22.72;47.85;99350.75;5045849;28;20041;-65
2024/01/04 04:00:46;;;;;;;4.33;1.87;;;;;;;-22.42;47.89;99379.63;5039726;28;20051;-65
2024/01/04 04:03:16;;;;;;;5.03;1.63;;;;;;;-22.49;47.43;99381.38;5017565;28;20068;-66
2024/01/04 04:05:44;;;;;;;3.00;2.27;;;;;;;-22.77;47.78;99348.66;5042798;28;20032;-66
2024/01/04 04:08:10;;;;;;;4.67;1.13;;;;;;;-22.47;48.23;99392.31;5043605;28;20044;-67
2024/01/04 04:10:36;;;;;;;6.00;2.60;;;;;;;-22.46;47.77;99374.31;5067186;28;20044;-66
2024/01/04 04:13:02;;;;;;;2.57;1.57;;;;;;;-22.64;47.21;99354.97;5064112;28;20040;-67
2024/01/04 04:15:28;;;;;;;11.77;2.70;;;;;;;-22.40;47.92;99393.84;5069760;28;20054;-67
2024/01/04 04:17:55;;;;;;;5.40;1.40;;;;;;;-22.57;48.33;99344.22;5077746;28;20046;-66
2024/01/04 04:20:21;;;;;;;2.37;1.43;;;;;;;-22.24;47.84;99389.03;5067353;28;20046;-65
2024/01/04 04:22:47;;;;;;;5.63;2.37;;;;;;;-22.37;47.78;99358.75;5062738;28;20039;-68
2024/01/04 04:25:13;;;;;;;2.77;0.97;;;;;;;-22.21;47.95;99373.69;5034550;28;20039;-68
2024/01/04 04:27:39;;;;;;;2.67;2.00;;;;;;;-22.43;47.71;99358.97;5049237;28;20035;-68
2024/01/04 04:30:06;;;;;;;2.63;1.83;;;;;;;-22.40;47.79;99370.75;5066953;28;20037;-67
2024/01/04 04:32:32;;;;;;;3.80;2.03;;;;;;;-22.41;47.77;99367.41;5061201;28;20040;-68
2024/01/04 04:34:58;;;;;;;2.73;2.10;;;;;;;-22.44;47.66;99363.03;5082742;28;20047;-68
2024/01/04 04:37:23;;;;;;;3.07;1.77;;;;;;;-22.32;47.52;99362.63;5033218;28;20040;-66
2024/01/04 04:39:49;;;;;;;2.63;2.43;;;;;;;-22.70;47.23;99314.81;5052544;28;20069;-66
2024/01/04 04:42:15;;;;;;;2.20;1.77;;;;;;;-22.65;47.59;99358.16;5082416;28;20093;-66
2024/01/04 04:44:41;;;;;;;8.40;1.17;;;;;;;-22.68;47.75;99351.28;5082704;28;20044;-66
2024/01/04 04:47:07;;;;;;;1.70;1.47;;;;;;;-22.63;47.30;99367.47;5067138;28;20027;-66
2024/01/04 04:49:33;;;;;;;2.73;1.47;;;;;;;-22.54;47.96;99376.63;5066551;28;20039;-66
2024/01/04 04:51:59;;;;;;;2.30;1.30;;;;;;;-22.61;47.99;99362.72;5063908;28;20118;-65
2024/01/04 04:54:25;;;;;;;4.60;1.93;;;;;;;-22.59;47.50;99366.22;5059794;28;20131;-67
2024/01/04 04:56:51;;;;;;;2.20;1.77;;;;;;;-22.60;46.49;99401.47;5064477;28;20067;-65
2024/01/04 04:59:17;;;;;;;6.60;1.07;;;;;;;-22.72;47.17;99395.16;5060780;28;20505;-67
2024/01/04 05:01:44;;;;;;;1.63;1.33;;;;;;;-22.70;47.98;99379.81;5082124;28;20069;-65
2024/01/04 05:04:10;;;;;;;3.60;1.53;;;;;;;-23.07;47.34;99309.97;5081420;28;20040;-67
2024/01/04 05:06:36;;;;;;;3.33;1.20;;;;;;;-22.61;47.08;99377.50;5081071;28;20119;-65
2024/01/04 05:09:02;;;;;;;3.37;2.07;;;;;;;-22.51;47.61;99400.06;5068244;28;20080;-65
2024/01/04 05:11:28;;;;;;;10.93;3.07;;;;;;;-22.67;47.76;99345.63;5061119;28;20055;-65
2024/01/04 05:13:54;;;;;;;3.00;1.73;;;;;;;-22.24;46.79;99401.38;5081269;28;20040;-65
2024/01/04 05:16:20;;;;;;;11.47;2.13;;;;;;;-22.30;47.76;99410.56;5079918;28;20037;-64
2024/01/04 05:18:46;;;;;;;7.43;1.30;;;;;;;-22.46;47.61;99380.84;5080778;28;20075;-65
2024/01/04 05:21:12;;;;;;;3.40;1.77;;;;;;;-22.35;47.21;99396.81;5034534;28;20040;-64
2024/01/04 05:23:38;;;;;;;7.03;2.33;;;;;;;-22.25;46.86;99402.09;5031746;28;20089;-64
2024/01/04 05:26:04;;;;;;;3.50;1.43;;;;;;;-22.21;48.19;99396.81;5065333;28;20054;-63
2024/01/04 05:28:31;;;;;;;4.57;2.40;;;;;;;-22.38;46.99;99370.22;5062642;28;20048;-65
2024/01/04 05:30:59;;;;;;;3.47;1.63;;;;;;;-22.22;46.99;99390.09;5081293;28;20102;-64
2024/01/04 05:33:25;;;;;;;9.40;2.43;;;;;;;-22.21;47.47;99371.22;5043516;28;20517;-65
2024/01/04 05:35:51;;;;;;;3.27;1.90;;;;;;;-21.87;48.53;99404.63;5079716;28;20067;-65
2024/01/04 05:38:17;;;;;;;4.50;2.20;;;;;;;-21.90;47.75;99407.63;5078191;28;20035;-64
2024/01/04 05:40:43;;;;;;;5.37;2.57;;;;;;;-21.85;46.97;99388.38;5063191;28;20502;-64
2024/01/04 05:43:10;;;;;;;6.30;2.93;;;;;;;-21.78;48.32;99395.75;5064105;28;20051;-66
2024/01/04 05:45:36;;;;;;;3.87;2.10;;;;;;;-21.71;46.78;99382.47;5066805;28;20040;-65
2024/01/04 05:48:02;;;;;;;22.07;4.70;;;;;;;-21.44;48.32;99408.44;5081198;28;20039;-64
2024/01/04 05:50:28;;;;;;;21.87;9.10;;;;;;;-21.33;48.21;99415.44;5080247;28;20036;-64
2024/01/04 05:52:54;;;;;;;7.43;2.53;;;;;;;-21.42;47.15;99385.66;5033270;28;20046;-65
2024/01/04 05:55:20;;;;;;;4.00;1.60;;;;;;;-21.20;47.48;99409.34;5057753;28;20144;-65
2024/01/04 05:57:45;;;;;;;6.27;2.43;;;;;;;-21.18;47.32;99422.75;5065166;28;20504;-65
2024/01/04 06:00:13;;;;;;;2.57;1.53;;;;;;;-21.34;47.79;99385.59;5066393;28;20090;-65
2024/01/04 06:02:39;;;;;;;4.40;2.13;;;;;;;-21.25;47.10;99391.56;5044312;28;20028;-66
2024/01/04 06:05:06;;;;;;;4.20;2.00;;;;;;;-21.48;46.77;99342.06;5030185;28;20515;-66
2024/01/04 06:07:32;;;;;;;3.63;2.30;;;;;;;-21.47;47.38;99342.25;5058690;28;20149;-65
2024/01/04 06:09:58;;;;;;;4.60;2.83;;;;;;;-21.95;47.33;99309.03;5057137;28;20098;-66
2024/01/04 06:12:24;;;;;;;10.17;2.00;;;;;;;-21.58;46.94;99365.78;5043710;28;20526;-65
2024/01/04 06:14:51;;;;;;;3.63;2.03;;;;;;;-21.70;46.19;99352.13;5057290;28;20050;-64
2024/01/04 06:17:17;;;;;;;3.73;2.10;;;;;;;-21.48;46.66;99381.59;5057723;28;20040;-67
2024/01/04 06:19:44;;;;;;;4.77;2.30;;;;;;;-21.46;47.20;99370.31;5060097;28;20115;-65
2024/01/04 06:22:13;;;;;;;3.60;2.13;;;;;;;-21.68;46.89;99348.22;5044852;28;20497;-64
2024/01/04 06:24:39;;;;;;;4.40;1.83;;;;;;;-21.71;47.03;99329.03;5039275;28;20106;-65
2024/01/04 06:27:05;;;;;;;2.53;1.67;;;;;;;-21.79;47.98;99279.50;5042197;28;20139;-66
2024/01/04 06:29:31;;;;;;;2.67;1.80;;;;;;;-21.46;46.68;99356.38;5060036;28;20182;-64
2024/01/04 06:31:58;;;;;;;1.50;1.17;;;;;;;-21.35;46.83;99322.94;5057654;28;20068;-64
2024/01/04 06:34:24;;;;;;;3.10;1.43;;;;;;;-21.10;47.44;99290.94;5060301;28;20086;-64
2024/01/04 06:36:50;;;;;;;5.83;1.93;;;;;;;-20.35;47.27;99295.44;5041585;28;20051;-65
2024/01/04 06:39:16;;;;;;;7.00;2.60;;;;;;;-18.97;47.40;99345.56;5045708;28;20036;-65
2024/01/04 06:41:45;;;;;;;4.20;1.83;;;;;;;-18.67;46.82;99235.94;5029337;28;20879;-65
2024/01/04 06:44:14;;;;;;;9.07;2.13;;;;;;;-17.72;47.22;99229.84;5061576;28;20033;-65
2024/01/04 06:46:40;;;;;;;6.17;2.87;;;;;;;-16.13;47.28;99352.81;5058807;28;20072;-66
2024/01/04 06:49:06;;;;;;;4.27;2.03;;;;;;;-15.60;46.39;99308.34;5043356;28;20064;-65
2024/01/04 06:51:32;;;;;;;5.07;2.23;;;;;;;-14.74;46.85;99308.00;5059315;28;20123;-66
2024/01/04 06:53:58;;;;;;;5.17;2.20;;;;;;;-14.37;44.73;99303.47;5059131;28;20040;-66
2024/01/04 06:56:24;;;;;;;10.37;3.10;;;;;;;-13.50;45.56;99300.31;5040056;28;20047;-66
2024/01/04 06:58:49;;;;;;;4.93;2.13;;;;;;;-12.65;44.60;99303.34;5041974;28;20147;-66
2024/01/04 07:01:18;;;;;;;7.03;2.70;;;;;;;-11.70;45.05;99303.50;5058325;28;20033;-65
2024/01/04 07:03:44;;;;;;;4.83;3.03;;;;;;;-10.89;44.07;99312.44;5056961;28;20415;-64
2024/01/04 07:06:10;;;;;;;9.40;2.57;;;;;;;-10.01;44.60;99320.75;5058223;28;20487;-65
2024/01/04 07:08:37;;;;;;;6.72;3.35;;;;;;;-9.11;43.50;99333.94;5027767;28;20060;-64
2024/01/04 07:11:05;;;;;;;8.18;3.28;;;;;;;-8.85;41.79;99319.53;5056594;28;20052;-65
2024/01/04 07:13:33;;;;;;;7.25;3.42;;;;;;;-8.28;42.95;99329.63;5027610;28;20033;-65
2024/01/04 07:16:04;;;;;;;9.18;3.97;;;;;;;-7.17;41.80;99313.88;5043479;28;20036;-65
2024/01/04 07:18:30;;;;;;;8.85;3.35;;;;;;;-6.61;42.32;99259.41;5057446;28;20040;-64
2024/01/04 07:20:56;;;;;;;7.45;3.78;;;;;;;-5.99;40.68;99319.84;5059344;28;20494;-63
2024/01/04 07:23:22;;;;;;;10.68;4.35;;;;;;;-5.21;41.00;99297.38;5060372;28;20114;-64
2024/01/04 07:25:48;;;;;;;11.65;5.00;;;;;;;-4.45;39.69;99315.09;5057925;28;20182;-62
2024/01/04 07:28:14;;;;;;;9.18;3.78;;;;;;;-4.00;39.51;99315.31;5058108;28;20048;-64
2024/01/04 07:30:43;;;;;;;8.80;3.92;;;;;;;-2.97;39.20;99320.22;5059566;28;20154;-67
2024/01/04 07:33:09;;;;;;;7.03;3.70;;;;;;;-1.77;38.19;99320.19;5058853;28;20054;-62
2024/01/04 07:35:35;;;;;;;8.63;4.63;;;;;;;-0.90;37.13;99325.44;5022694;28;20125;-63
2024/01/04 07:38:01;;;;;;;9.95;4.43;;;;;;;-1.53;36.05;99315.00;5057345;28;20505;-64
2024/01/04 07:40:30;;;;;;;9.60;3.78;;;;;;;-2.03;34.06;99293.78;5041245;28;20052;-65
2024/01/04 07:42:56;;;;;;;9.40;4.18;;;;;;;-2.31;34.82;99298.81;5042540;28;20190;-64
2024/01/04 07:45:22;;;;;;;7.82;3.72;;;;;;;-1.35;34.94;99316.38;5040243;28;20131;-65
2024/01/04 07:47:48;;;;;;;5.57;3.75;;;;;;;-0.43;34.50;99286.69;5056666;28;20525;-64
2024/01/04 07:50:14;;;;;;;9.85;4.22;;;;;;;0.13;33.20;99298.38;5058523;28;20040;-63
2024/01/04 07:52:40;;;;;;;8.82;4.78;;;;;;;0.24;31.73;99294.41;5057267;28;20051;-64
2024/01/04 07:55:07;;;;;;;8.82;4.72;;;;;;;0.32;32.34;99279.22;5042668;28;20044;-64
2024/01/04 07:57:33;;;;;;;8.43;4.85;;;;;;;0.13;30.89;99183.22;5043171;28;20051;-65
2024/01/04 07:59:59;;;;;;;8.15;4.50;;;;;;;1.14;31.52;99286.19;5061303;28;20132;-64
2024/01/04 08:02:28;;;;;;;9.48;4.30;;;;;;;1.27;30.32;99289.00;5061517;28;20181;-63
2024/01/04 08:04:54;;;;;;;9.40;4.60;;;;;;;1.38;30.40;99284.06;5062797;28;20051;-64
2024/01/04 08:07:21;;;;;;;9.88;5.30;;;;;;;1.59;29.60;99253.72;5045991;28;20063;-64
2024/01/04 08:09:51;;;;;;;7.60;4.55;;;;;;;2.01;29.52;99259.59;5046952;28;20052;-64
2024/01/04 08:12:17;;;;;;;11.57;5.05;;;;;;;2.50;28.59;99259.53;5046313;28;20131;-64
2024/01/04 08:14:43;;;;;;;12.02;6.50;;;;;;;2.96;27.99;99263.59;5057121;28;20142;-65
2024/01/04 08:17:09;;;;;;;8.25;5.00;;;;;;;3.34;28.08;99247.78;5045053;28;20040;-65
2024/01/04 08:19:35;;;;;;;7.72;4.63;;;;;;;3.81;27.43;99238.84;5060416;28;20102;-64
2024/01/04 08:22:00;;;;;;;12.55;6.75;;;;;;;4.69;27.00;99285.06;5058774;28;20142;-65
2024/01/04 08:24:28;;;;;;;12.00;5.30;;;;;;;4.97;26.06;99262.00;5058887;28;20064;-65
2024/01/04 08:26:54;;;;;;;10.15;5.38;;;;;;;5.68;26.21;99279.50;5059646;28;20051;-64
2024/01/04 08:29:21;;;;;;;14.48;6.10;;;;;;;5.90;25.25;99264.06;5027687;28;20075;-66
2024/01/04 08:31:47;;;;;;;12.00;5.70;;;;;;;5.33;24.70;99264.75;5043057;28;20063;-66
2024/01/04 08:34:13;;;;;;;13.20;5.50;;;;;;;5.26;24.03;99258.72;5045790;28;20037;-67
2024/01/04 08:36:39;;;;;;;12.20;5.55;;;;;;;5.37;24.31;99259.63;5057994;28;20044;-68
2024/01/04 08:39:05;;;;;;;11.63;5.90;;;;;;;5.68;24.07;99249.38;5059780;28;20044;-66
2024/01/04 08:41:31;;;;;;;11.40;6.18;;;;;;;5.94;23.47;99253.72;5058425;28;20040;-65
2024/01/04 08:43:57;;;;;;;12.70;6.47;;;;;;;5.72;23.27;99260.59;5058785;28;20704;-66
2024/01/04 08:46:25;;;;;;;9.63;5.63;;;;;;;5.99;23.03;99238.22;5051726;28;20693;-65
2024/01/04 08:48:52;;;;;;;11.30;5.63;;;;;;;6.33;22.68;99246.88;5058311;28;20166;-65
2024/01/04 08:51:18;;;;;;;8.65;5.15;;;;;;;6.73;21.99;99260.66;5061564;28;20052;-65
2024/01/04 08:53:44;;;;;;;14.45;6.07;;;;;;;6.94;22.22;99239.03;5058484;28;20415;-65
2024/01/04 08:56:13;;;;;;;12.00;5.47;;;;;;;7.43;21.86;99245.72;5046245;28;20045;-66
2024/01/04 08:58:39;;;;;;;13.02;5.68;;;;;;;7.86;21.91;99231.69;5058979;28;20154;-66
2024/01/04 09:01:05;;;;;;;12.23;6.40;;;;;;;8.16;21.39;99221.09;5059625;28;20072;-67
2024/01/04 09:03:32;;;;;;;10.85;5.85;;;;;;;7.87;21.03;99193.66;5058093;28;20131;-66
2024/01/04 09:05:58;;;;;;;11.25;5.95;;;;;;;7.48;20.51;99192.19;5042193;28;20143;-66
2024/01/04 09:08:29;;;;;;;10.55;6.15;;;;;;;7.43;20.57;99219.00;5060707;28;20051;-66
2024/01/04 09:10:56;;;;;;;26.23;6.50;;;;;;;6.15;20.78;99178.00;5061011;28;20048;-66
2024/01/04 09:13:22;;;;;;;11.40;6.38;;;;;;;6.57;20.46;99202.94;5046705;28;20047;-66
2024/01/04 09:15:48;;;;;;;12.70;6.57;;;;;;;6.69;20.24;99252.00;5057297;28;20048;-65
2024/01/04 09:18:19;;;;;;;9.63;5.95;;;;;;;6.69;20.25;99252.00;5041443;28;20044;-66
2024/01/04 09:20:45;;;;;;;12.27;6.97;;;;;;;6.81;20.05;99221.84;5045451;28;20033;-64
2024/01/04 09:23:12;;;;;;;14.02;7.63;;;;;;;7.19;19.83;99249.28;5056619;28;20075;-65
2024/01/04 09:25:38;;;;;;;16.10;8.15;;;;;;;6.74;19.97;99239.06;5056423;28;20044;-65
2024/01/04 09:28:04;;;;;;;16.60;8.23;;;;;;;6.71;19.82;99211.50;5058334;28;20506;-65
2024/01/04 09:30:30;;;;;;;13.30;6.38;;;;;;;6.35;18.85;99225.34;5045881;28;20092;-67
2024/01/04 09:32:57;;;;;;;11.38;6.30;;;;;;;6.47;20.17;99256.38;5059867;28;20139;-65
2024/01/04 09:35:23;;;;;;;13.90;6.80;;;;;;;6.62;19.25;99214.97;5051637;28;20040;-64
2024/01/04 09:37:52;;;;;;;12.90;6.47;;;;;;;6.59;19.37;99237.41;5057495;28;20044;-67
2024/01/04 09:40:21;;;;;;;12.35;6.45;;;;;;;6.36;19.25;99234.81;5055475;28;20075;-65
2024/01/04 09:42:48;;;;;;;14.27;6.40;;;;;;;6.53;19.30;99224.47;5062020;28;20036;-65
2024/01/04 09:45:18;;;;;;;13.65;6.60;;;;;;;6.69;19.22;99218.41;5057311;28;20040;-65
2024/01/04 09:47:45;;;;;;;13.32;7.15;;;;;;;6.85;19.27;99162.31;5058876;28;20077;-65
2024/01/04 09:50:13;;;;;;;12.93;6.50;;;;;;;7.51;18.90;99231.03;5058091;28;20124;-68
2024/01/04 09:52:45;;;;;;;16.55;7.72;;;;;;;7.62;18.63;99230.09;5059514;28;20044;-67
2024/01/04 09:55:12;;;;;;;16.45;7.70;;;;;;;6.70;18.70;99214.94;5057867;28;20048;-68
2024/01/04 09:57:38;;;;;;;15.27;7.70;;;;;;;6.51;18.93;99226.19;5061737;28;20051;-67
2024/01/04 10:00:05;;;;;;;16.85;9.25;;;;;;;6.16;18.66;99207.28;5071220;28;20071;-67
2024/01/04 10:02:45;;;;;;;15.77;9.00;;;;;;;5.76;18.11;99208.06;5055915;28;20135;-67
2024/01/04 10:05:15;;;;;;;18.77;9.90;;;;;;;5.22;18.73;99162.41;5058976;28;20139;-68
2024/01/04 10:08:10;;;;;;;18.10;9.90;;;;;;;4.07;17.76;99199.59;5063531;28;20052;-68
2024/01/04 10:10:40;;;;;;;20.35;11.23;;;;;;;3.50;18.97;99199.94;5057908;28;20044;-68
2024/01/04 10:13:08;;;;;;;25.40;11.75;;;;;;;2.08;18.78;99217.81;5029914;28;20041;-68
2024/01/04 10:15:36;;;;;;;21.35;11.20;;;;;;;0.10;18.94;99175.50;5041137;28;20158;-68
2024/01/04 10:18:08;;;;;;;18.48;10.15;;;;;;;-1.35;19.74;99193.84;5029853;28;20044;-67
2024/01/04 10:20:34;;;;;;;21.38;10.02;;;;;;;-3.36;19.50;99211.00;5041625;28;20072;-67
2024/01/04 10:23:04;;;;;;;17.70;9.50;;;;;;;-5.43;19.65;99171.22;5014183;28;20136;-67
2024/01/04 10:25:30;;;;;;;20.42;11.30;;;;;;;-6.52;20.24;99221.06;5052348;28;20080;-67
2024/01/04 10:27:57;;;;;;;22.77;10.32;;;;;;;-7.33;21.11;99222.00;5043158;28;20131;-66
2024/01/04 10:30:23;;;;;;;20.55;9.70;;;;;;;-7.98;21.31;99241.22;5014288;28;20498;-66
2024/01/04 10:32:50;;;;;;;20.60;9.50;;;;;;;-8.58;21.57;99246.28;5060031;28;20044;-66
2024/01/04 10:35:27;;;;;;;20.30;9.55;;;;;;;-9.80;21.91;99164.25;5039831;28;20159;-67
2024/01/04 10:37:58;;;;;;;18.25;9.50;;;;;;;-9.89;22.11;99234.19;5053420;28;20078;-67
2024/01/04 10:40:25;;;;;;;20.30;8.68;;;;;;;-10.39;22.24;99246.16;5026252;28;20033;-67
2024/01/04 10:42:54;;;;;;;19.25;8.45;;;;;;;-10.78;22.77;99246.16;5058363;28;20102;-65
2024/01/04 10:45:27;;;;;;;18.65;7.32;;;;;;;-11.18;23.05;99233.41;5050991;28;20036;-67
2024/01/04 10:47:53;;;;;;;26.63;7.53;;;;;;;-11.63;23.24;99210.28;5041668;28;20091;-66
2024/01/04 10:50:25;;;;;;;18.13;7.93;;;;;;;-11.88;23.17;99212.69;5053511;28;20498;-67
2024/01/04 10:52:55;;;;;;;14.73;6.35;;;;;;;-12.02;23.91;99266.94;5021992;28;20138;-66
2024/01/04 10:55:21;;;;;;;19.00;7.00;;;;;;;-12.31;23.83;99253.19;5046718;28;20490;-66
2024/01/04 10:57:49;;;;;;;16.97;6.80;;;;;;;-12.42;24.98;99232.34;5058106;28;20043;-67
2024/01/04 11:00:17;;;;;;;18.77;7.03;;;;;;;-12.70;24.33;99272.06;5041433;28;20499;-66
2024/01/04 11:02:44;;;;;;;16.33;7.00;;;;;;;-13.45;24.64;99183.88;5046608;28;20505;-66
2024/01/04 11:05:11;;;;;;;15.90;6.67;;;;;;;-13.20;24.64;99251.69;5056932;28;20041;-67
2024/01/04 11:07:40;;;;;;;18.17;6.73;;;;;;;-13.25;24.79;99239.56;5059074;28;20055;-66
2024/01/04 11:10:09;;;;;;;19.67;7.40;;;;;;;-12.73;24.85;99268.56;5055605;28;20123;-66
2024/01/04 11:12:37;;;;;;;15.80;6.83;;;;;;;-13.19;24.47;99267.59;5041143;28;20061;-66
2024/01/04 11:15:04;;;;;;;22.20;7.73;;;;;;;-13.50;25.25;99267.75;5040126;28;20041;-65
2024/01/04 11:17:49;;;;;;;27.10;7.63;;;;;;;-13.74;25.11;99260.09;5041066;28;20215;-66
2024/01/04 11:20:42;;;;;;;20.00;7.87;;;;;;;-14.01;25.31;99257.16;5056039;28;20041;-67
2024/01/04 11:23:20;;;;;;;18.03;7.33;;;;;;;-14.20;25.79;99269.84;5044876;28;20033;-66
2024/01/04 11:26:16;;;;;;;21.23;7.47;;;;;;;-14.56;26.23;99276.97;5042648;28;20078;-67